createdAt,value
2016-07-27T00:00:41.233Z,1014.81
2016-07-27T00:01:41.259Z,1014.81
2016-07-27T00:02:41.286Z,1014.82
2016-07-27T00:04:41.344Z,1014.76
2016-07-27T00:05:41.371Z,1014.73
2016-07-27T00:06:41.398Z,1014.77
2016-07-27T00:07:41.424Z,1014.75
2016-07-27T00:08:41.450Z,1014.74
2016-07-27T00:09:41.478Z,1014.74
2016-07-27T00:10:41.508Z,1014.72
2016-07-27T00:11:41.532Z,1014.75
2016-07-27T00:12:41.562Z,1014.75
2016-07-27T00:13:41.587Z,1014.74
2016-07-27T00:14:41.615Z,1014.76
2016-07-27T00:15:41.642Z,1014.73
2016-07-27T00:16:41.670Z,1014.74
2016-07-27T00:17:41.697Z,1014.72
2016-07-27T00:18:41.725Z,1014.71
2016-07-27T00:20:41.777Z,1014.72
2016-07-27T00:21:41.805Z,1014.73
2016-07-27T00:22:41.832Z,1014.74
2016-07-27T00:23:41.858Z,1014.78
2016-07-27T00:24:41.886Z,1014.73
2016-07-27T00:25:41.915Z,1014.72
2016-07-27T00:26:41.943Z,1014.73
2016-07-27T00:27:41.968Z,1014.69
2016-07-27T00:28:41.996Z,1014.71
2016-07-27T00:29:42.025Z,1014.69
2016-07-27T00:30:42.049Z,1014.7
2016-07-27T00:31:42.078Z,1014.69
2016-07-27T00:32:42.106Z,1014.68
2016-07-27T00:33:42.133Z,1014.68
2016-07-27T00:34:42.160Z,1014.7
2016-07-27T00:36:42.215Z,1014.66
2016-07-27T00:37:42.243Z,1014.67
2016-07-27T00:38:42.266Z,1014.7
2016-07-27T00:39:42.296Z,1014.65
2016-07-27T00:40:42.322Z,1014.64
2016-07-27T00:41:42.350Z,1014.66
2016-07-27T00:42:42.377Z,1014.67
2016-07-27T00:43:42.403Z,1014.68
2016-07-27T00:44:42.430Z,1014.67
2016-07-27T00:45:42.458Z,1014.68
2016-07-27T00:46:42.536Z,1014.68
2016-07-27T00:47:42.511Z,1014.67
2016-07-27T00:48:42.541Z,1014.7
2016-07-27T00:49:42.568Z,1014.68
2016-07-27T00:51:42.621Z,1014.67
2016-07-27T00:52:42.652Z,1014.65
2016-07-27T00:53:42.676Z,1014.63
2016-07-27T00:54:42.703Z,1014.62
2016-07-27T00:55:42.729Z,1014.61
2016-07-27T00:56:42.757Z,1014.63
2016-07-27T00:57:42.784Z,1014.66
2016-07-27T00:58:42.812Z,1014.66
2016-07-27T00:59:42.838Z,1014.67
2016-07-27T01:00:42.865Z,1014.65
2016-07-27T01:01:42.889Z,1014.62
2016-07-27T01:02:42.917Z,1014.59
2016-07-27T01:03:42.943Z,1014.63
2016-07-27T01:04:43.021Z,1014.61
2016-07-27T01:05:43.001Z,1014.63
2016-07-27T01:06:43.028Z,1014.62
2016-07-27T01:07:43.053Z,1014.61
2016-07-27T01:08:43.080Z,1014.62
2016-07-27T01:09:43.109Z,1014.6
2016-07-27T01:10:43.135Z,1014.57
2016-07-27T01:11:43.159Z,1014.57
2016-07-27T01:12:43.190Z,1014.56
2016-07-27T01:13:43.216Z,1014.54
2016-07-27T01:14:43.243Z,1014.52
2016-07-27T01:15:43.270Z,1014.52
2016-07-27T01:16:43.297Z,1014.49
2016-07-27T01:17:43.325Z,1014.46
2016-07-27T01:18:43.351Z,1014.48
2016-07-27T01:19:43.376Z,1014.48
2016-07-27T01:20:43.403Z,1014.5
2016-07-27T01:21:43.432Z,1014.45
2016-07-27T01:23:43.486Z,1014.49
2016-07-27T01:24:43.511Z,1014.42
2016-07-27T01:25:43.537Z,1014.5
2016-07-27T01:26:43.565Z,1014.45
2016-07-27T01:27:43.595Z,1014.47
2016-07-27T01:28:43.621Z,1014.5
2016-07-27T01:29:43.647Z,1014.48
2016-07-27T01:30:43.675Z,1014.42
2016-07-27T01:31:43.701Z,1014.43
2016-07-27T01:32:43.728Z,1014.43
2016-07-27T01:33:43.753Z,1014.42
2016-07-27T01:34:43.780Z,1014.43
2016-07-27T01:35:43.807Z,1014.45
2016-07-27T01:36:43.835Z,1014.37
2016-07-27T01:37:43.862Z,1014.41
2016-07-27T01:39:43.915Z,1014.43
2016-07-27T01:40:43.943Z,1014.4
2016-07-27T01:41:43.971Z,1014.43
2016-07-27T01:42:43.996Z,1014.39
2016-07-27T01:43:44.022Z,1014.42
2016-07-27T01:44:44.049Z,1014.46
2016-07-27T01:45:44.078Z,1014.45
2016-07-27T01:46:44.103Z,1014.47
2016-07-27T01:47:44.131Z,1014.45
2016-07-27T01:48:44.156Z,1014.45
2016-07-27T01:49:44.186Z,1014.45
2016-07-27T01:50:44.210Z,1014.46
2016-07-27T01:51:44.239Z,1014.45
2016-07-27T01:52:44.265Z,1014.44
2016-07-27T01:53:44.291Z,1014.44
2016-07-27T01:55:44.345Z,1014.45
2016-07-27T01:56:44.373Z,1014.47
2016-07-27T01:57:44.398Z,1014.45
2016-07-27T01:58:44.426Z,1014.45
2016-07-27T01:59:44.451Z,1014.43
2016-07-27T02:00:44.478Z,1014.42
2016-07-27T02:01:44.505Z,1014.41
2016-07-27T02:02:44.531Z,1014.41
2016-07-27T02:03:44.560Z,1014.37
2016-07-27T02:04:44.586Z,1014.38
2016-07-27T02:05:44.613Z,1014.37
2016-07-27T02:06:44.641Z,1014.38
2016-07-27T02:07:44.666Z,1014.35
2016-07-27T02:08:44.694Z,1014.36
2016-07-27T02:09:44.722Z,1014.34
2016-07-27T02:11:44.776Z,1014.32
2016-07-27T02:12:44.801Z,1014.34
2016-07-27T02:13:44.830Z,1014.3
2016-07-27T02:14:44.854Z,1014.3
2016-07-27T02:15:44.883Z,1014.26
2016-07-27T02:16:44.907Z,1014.27
2016-07-27T02:17:44.935Z,1014.26
2016-07-27T02:18:44.969Z,1014.21
2016-07-27T02:19:44.988Z,1014.26
2016-07-27T02:20:45.016Z,1014.24
2016-07-27T02:21:45.041Z,1014.23
2016-07-27T02:22:45.071Z,1014.22
2016-07-27T02:23:45.296Z,1014.21
2016-07-27T02:24:45.125Z,1014.19
2016-07-27T02:26:45.176Z,1014.19
2016-07-27T02:27:45.204Z,1014.19
2016-07-27T02:28:45.227Z,1014.16
2016-07-27T02:29:45.256Z,1014.14
2016-07-27T02:30:45.285Z,1014.15
2016-07-27T02:31:45.309Z,1014.19
2016-07-27T02:32:45.336Z,1014.17
2016-07-27T02:33:45.363Z,1014.17
2016-07-27T02:34:45.391Z,1014.15
2016-07-27T02:35:45.416Z,1014.16
2016-07-27T02:36:45.445Z,1014.21
2016-07-27T02:37:45.472Z,1014.2
2016-07-27T02:38:45.498Z,1014.19
2016-07-27T02:39:45.523Z,1014.19
2016-07-27T02:40:45.549Z,1014.17
2016-07-27T02:41:45.578Z,1014.17
2016-07-27T02:42:45.608Z,1014.12
2016-07-27T02:43:45.629Z,1014.14
2016-07-27T02:44:45.658Z,1014.19
2016-07-27T02:45:45.685Z,1014.13
2016-07-27T02:46:45.709Z,1014.12
2016-07-27T02:47:45.737Z,1014.09
2016-07-27T02:48:45.763Z,1014.14
2016-07-27T02:49:45.791Z,1014.11
2016-07-27T02:50:45.818Z,1014.11
2016-07-27T02:52:45.870Z,1014.08
2016-07-27T02:53:45.896Z,1014.08
2016-07-27T02:54:45.924Z,1014.03
2016-07-27T02:55:45.950Z,1014.02
2016-07-27T02:56:45.978Z,1013.98
2016-07-27T02:58:46.029Z,1013.98
2016-07-27T02:59:46.058Z,1013.98
2016-07-27T03:00:46.085Z,1013.96
2016-07-27T03:01:46.111Z,1013.99
2016-07-27T03:02:46.137Z,1014.02
2016-07-27T03:03:46.165Z,1014.02
2016-07-27T03:04:46.191Z,1014.04
2016-07-27T03:05:46.218Z,1014.01
2016-07-27T03:07:46.269Z,1013.99
2016-07-27T03:08:46.298Z,1013.99
2016-07-27T03:09:46.325Z,1013.97
2016-07-27T03:10:46.349Z,1013.96
2016-07-27T03:11:46.377Z,1013.93
2016-07-27T03:12:46.404Z,1013.92
2016-07-27T03:14:46.458Z,1013.95
2016-07-27T03:15:46.484Z,1013.93
2016-07-27T03:16:46.511Z,1013.95
2016-07-27T03:17:46.538Z,1013.9
2016-07-27T03:18:46.612Z,1013.9
2016-07-27T03:19:46.591Z,1013.89
2016-07-27T03:20:46.614Z,1013.89
2016-07-27T03:22:46.667Z,1013.9
2016-07-27T03:23:46.698Z,1013.91
2016-07-27T03:24:46.723Z,1013.92
2016-07-27T03:25:46.751Z,1013.92
2016-07-27T03:26:46.776Z,1013.92
2016-07-27T03:27:46.801Z,1013.9
2016-07-27T03:28:46.830Z,1013.91
2016-07-27T03:30:46.882Z,1013.96
2016-07-27T03:31:46.908Z,1013.94
2016-07-27T03:32:46.937Z,1013.95
2016-07-27T03:33:46.963Z,1013.92
2016-07-27T03:34:46.989Z,1013.94
2016-07-27T03:35:47.015Z,1013.91
2016-07-27T03:36:47.041Z,1013.91
2016-07-27T03:37:47.070Z,1013.94
2016-07-27T03:38:47.096Z,1013.94
2016-07-27T03:39:47.121Z,1013.9
2016-07-27T03:40:47.148Z,1013.91
2016-07-27T03:41:47.173Z,1013.93
2016-07-27T03:42:47.201Z,1013.97
2016-07-27T03:43:47.230Z,1013.97
2016-07-27T03:44:47.256Z,1013.99
2016-07-27T03:46:47.309Z,1014
2016-07-27T03:47:47.334Z,1014
2016-07-27T03:48:47.361Z,1014.03
2016-07-27T03:49:47.389Z,1014.02
2016-07-27T03:50:47.417Z,1014.01
2016-07-27T03:51:47.440Z,1013.99
2016-07-27T03:52:47.469Z,1013.94
2016-07-27T03:53:47.494Z,1013.99
2016-07-27T03:54:47.523Z,1013.98
2016-07-27T03:55:47.549Z,1013.98
2016-07-27T03:56:47.575Z,1013.96
2016-07-27T03:57:47.603Z,1013.93
2016-07-27T03:58:47.629Z,1013.91
2016-07-27T03:59:47.657Z,1013.93
2016-07-27T04:01:47.713Z,1013.96
2016-07-27T04:02:47.736Z,1013.93
2016-07-27T04:03:47.762Z,1013.91
2016-07-27T04:04:47.789Z,1013.93
2016-07-27T04:05:47.819Z,1013.93
2016-07-27T04:06:47.845Z,1013.91
2016-07-27T04:07:47.872Z,1013.91
2016-07-27T04:08:47.898Z,1013.94
2016-07-27T04:09:47.924Z,1013.99
2016-07-27T04:10:47.952Z,1013.97
2016-07-27T04:11:47.977Z,1013.98
2016-07-27T04:12:48.004Z,1013.98
2016-07-27T04:13:48.032Z,1014.02
2016-07-27T04:14:48.060Z,1014
2016-07-27T04:15:48.087Z,1013.98
2016-07-27T04:16:48.111Z,1014.01
2016-07-27T04:17:48.139Z,1013.97
2016-07-27T04:18:48.167Z,1013.92
2016-07-27T04:19:48.192Z,1013.93
2016-07-27T04:20:48.220Z,1013.92
2016-07-27T04:21:48.244Z,1013.88
2016-07-27T04:22:48.271Z,1013.85
2016-07-27T04:23:48.302Z,1013.86
2016-07-27T04:24:48.324Z,1013.88
2016-07-27T04:25:48.355Z,1013.88
2016-07-27T04:26:48.380Z,1013.84
2016-07-27T04:27:48.410Z,1013.83
2016-07-27T04:28:48.434Z,1013.81
2016-07-27T04:29:48.460Z,1013.79
2016-07-27T04:30:48.491Z,1013.78
2016-07-27T04:31:48.516Z,1013.77
2016-07-27T04:33:48.571Z,1013.75
2016-07-27T04:34:48.598Z,1013.76
2016-07-27T04:35:48.623Z,1013.75
2016-07-27T04:36:48.651Z,1013.78
2016-07-27T04:37:48.679Z,1013.77
2016-07-27T04:38:48.704Z,1013.81
2016-07-27T04:39:48.732Z,1013.79
2016-07-27T04:40:48.759Z,1013.8
2016-07-27T04:41:48.787Z,1013.77
2016-07-27T04:42:48.814Z,1013.79
2016-07-27T04:43:48.839Z,1013.8
2016-07-27T04:44:48.867Z,1013.78
2016-07-27T04:45:48.894Z,1013.82
2016-07-27T04:46:48.922Z,1013.73
2016-07-27T04:47:48.949Z,1013.79
2016-07-27T04:49:49.002Z,1013.71
2016-07-27T04:50:49.028Z,1013.7
2016-07-27T04:51:49.059Z,1013.7
2016-07-27T04:52:49.084Z,1013.78
2016-07-27T04:53:49.110Z,1013.89
2016-07-27T04:54:49.139Z,1014.01
2016-07-27T04:55:49.166Z,1014.01
2016-07-27T04:56:49.195Z,1014.06
2016-07-27T04:57:49.220Z,1014.02
2016-07-27T04:58:49.249Z,1013.91
2016-07-27T04:59:49.278Z,1013.87
2016-07-27T05:00:49.308Z,1013.79
2016-07-27T05:01:49.339Z,1013.88
2016-07-27T05:02:49.362Z,1013.94
2016-07-27T05:03:49.391Z,1013.97
2016-07-27T05:05:49.450Z,1013.97
2016-07-27T05:06:49.479Z,1013.96
2016-07-27T05:07:49.509Z,1013.89
2016-07-27T05:08:49.537Z,1013.9
2016-07-27T05:09:49.567Z,1013.9
2016-07-27T05:10:49.594Z,1013.9
2016-07-27T05:11:49.626Z,1013.96
2016-07-27T05:12:49.654Z,1013.91
2016-07-27T05:13:49.684Z,1013.92
2016-07-27T05:14:49.716Z,1013.91
2016-07-27T05:15:49.745Z,1013.9
2016-07-27T05:16:49.776Z,1013.88
2016-07-27T05:17:49.807Z,1013.87
2016-07-27T05:18:49.837Z,1013.91
2016-07-27T05:19:49.865Z,1013.88
2016-07-27T05:21:49.928Z,1013.84
2016-07-27T05:22:49.966Z,1013.78
2016-07-27T05:23:49.991Z,1013.81
2016-07-27T05:24:50.022Z,1013.75
2016-07-27T05:25:50.052Z,1013.81
2016-07-27T05:26:50.086Z,1013.81
2016-07-27T05:27:50.117Z,1013.82
2016-07-27T05:28:50.149Z,1013.82
2016-07-27T05:29:50.179Z,1013.83
2016-07-27T05:30:50.210Z,1013.79
2016-07-27T05:31:50.243Z,1013.83
2016-07-27T05:32:50.276Z,1013.82
2016-07-27T05:33:50.307Z,1013.82
2016-07-27T05:34:50.341Z,1013.84
2016-07-27T05:36:50.404Z,1013.85
2016-07-27T05:37:50.438Z,1013.87
2016-07-27T05:38:50.470Z,1013.88
2016-07-27T05:39:50.501Z,1013.91
2016-07-27T05:40:50.536Z,1013.91
2016-07-27T05:41:50.568Z,1013.91
2016-07-27T05:42:50.601Z,1013.96
2016-07-27T05:43:50.639Z,1013.99
2016-07-27T05:44:50.670Z,1014.01
2016-07-27T05:45:50.698Z,1014
2016-07-27T05:46:50.732Z,1013.97
2016-07-27T05:47:50.765Z,1014.03
2016-07-27T05:48:50.799Z,1013.97
2016-07-27T05:49:50.837Z,1014.03
2016-07-27T05:50:50.865Z,1014
2016-07-27T05:51:50.899Z,1013.98
2016-07-27T05:52:50.929Z,1013.98
2016-07-27T05:53:50.964Z,1014.01
2016-07-27T05:54:50.998Z,1013.92
2016-07-27T05:55:51.028Z,1014.02
2016-07-27T05:56:51.062Z,1013.96
2016-07-27T05:57:51.097Z,1013.98
2016-07-27T05:58:51.130Z,1014.06
2016-07-27T05:59:51.164Z,1014.08
2016-07-27T06:00:51.197Z,1014.01
2016-07-27T06:01:51.230Z,1014.06
2016-07-27T06:02:51.262Z,1014.03
2016-07-27T06:03:51.298Z,1013.87
2016-07-27T06:04:51.331Z,1014.01
2016-07-27T06:05:51.365Z,1013.92
2016-07-27T06:06:51.398Z,1013.93
2016-07-27T06:08:51.466Z,1013.94
2016-07-27T06:09:51.497Z,1013.92
2016-07-27T06:10:51.531Z,1013.89
2016-07-27T06:11:51.567Z,1013.88
2016-07-27T06:12:51.598Z,1013.93
2016-07-27T06:13:51.633Z,1013.91
2016-07-27T06:14:51.664Z,1013.98
2016-07-27T06:15:51.701Z,1013.92
2016-07-27T06:16:51.734Z,1013.9
2016-07-27T06:17:51.768Z,1013.88
2016-07-27T06:18:51.802Z,1013.85
2016-07-27T06:19:51.835Z,1013.95
2016-07-27T06:20:51.868Z,1014.04
2016-07-27T06:21:51.901Z,1014.02
2016-07-27T06:22:51.937Z,1014.14
2016-07-27T06:24:52.005Z,1014.31
2016-07-27T06:25:52.038Z,1014.3
2016-07-27T06:26:52.073Z,1014.24
2016-07-27T06:27:52.106Z,1014.22
2016-07-27T06:28:52.139Z,1014.18
2016-07-27T06:29:52.174Z,1013.96
2016-07-27T06:30:52.208Z,1013.95
2016-07-27T06:31:52.243Z,1013.78
2016-07-27T06:32:52.277Z,1014.04
2016-07-27T06:33:52.309Z,1013.92
2016-07-27T06:34:52.345Z,1013.86
2016-07-27T06:35:52.378Z,1013.81
2016-07-27T06:36:52.411Z,1013.88
2016-07-27T06:37:52.448Z,1013.9
2016-07-27T06:38:52.482Z,1013.9
2016-07-27T06:40:52.548Z,1014.13
2016-07-27T06:41:52.583Z,1014.25
2016-07-27T06:42:52.617Z,1014.17
2016-07-27T06:43:52.650Z,1014.09
2016-07-27T06:44:52.685Z,1014.19
2016-07-27T06:45:52.718Z,1014.14
2016-07-27T06:46:52.752Z,1013.95
2016-07-27T06:47:52.784Z,1013.95
2016-07-27T06:48:52.818Z,1013.87
2016-07-27T06:49:52.855Z,1014.09
2016-07-27T06:50:52.886Z,1014.18
2016-07-27T06:51:52.921Z,1013.81
2016-07-27T06:52:52.956Z,1013.74
2016-07-27T06:53:52.988Z,1013.77
2016-07-27T06:54:53.023Z,1014.11
2016-07-27T06:56:53.091Z,1014.45
2016-07-27T06:57:53.125Z,1014.45
2016-07-27T06:58:53.159Z,1014.51
2016-07-27T06:59:53.192Z,1014.5
2016-07-27T07:00:53.225Z,1014.5
2016-07-27T07:01:53.260Z,1014.4
2016-07-27T07:02:53.293Z,1014.33
2016-07-27T07:03:53.328Z,1014.33
2016-07-27T07:04:53.359Z,1014.44
2016-07-27T07:05:53.394Z,1014.24
2016-07-27T07:06:53.429Z,1013.92
2016-07-27T07:07:53.461Z,1013.97
2016-07-27T07:08:53.498Z,1014.41
2016-07-27T07:09:53.529Z,1014.47
2016-07-27T07:11:53.598Z,1014.17
2016-07-27T07:12:53.681Z,1014.33
2016-07-27T07:13:53.668Z,1014.45
2016-07-27T07:14:53.700Z,1013.9
2016-07-27T07:15:53.736Z,1013.56
2016-07-27T07:16:53.767Z,1013.54
2016-07-27T07:17:53.802Z,1013.85
2016-07-27T07:18:53.837Z,1013.63
2016-07-27T07:19:53.871Z,1013.51
2016-07-27T07:20:53.905Z,1013.53
2016-07-27T07:21:53.939Z,1013.61
2016-07-27T07:22:53.972Z,1013.62
2016-07-27T07:23:54.006Z,1013.51
2016-07-27T07:24:54.039Z,1013.45
2016-07-27T07:25:54.074Z,1013.41
2016-07-27T07:26:54.106Z,1013.37
2016-07-27T07:27:54.139Z,1013.36
2016-07-27T07:28:54.173Z,1013.33
2016-07-27T07:29:54.204Z,1013.35
2016-07-27T07:30:54.237Z,1013.31
2016-07-27T07:31:54.271Z,1013.35
2016-07-27T07:32:54.303Z,1013.42
2016-07-27T07:33:54.339Z,1013.4
2016-07-27T07:34:54.369Z,1013.6
2016-07-27T07:35:54.404Z,1013.52
2016-07-27T07:36:54.437Z,1013.55
2016-07-27T07:37:54.470Z,1013.47
2016-07-27T07:38:54.500Z,1013.57
2016-07-27T07:39:54.536Z,1013.53
2016-07-27T07:40:54.569Z,1013.43
2016-07-27T07:41:54.601Z,1013.35
2016-07-27T07:43:54.667Z,1013.25
2016-07-27T07:44:54.701Z,1013.25
2016-07-27T07:45:54.731Z,1013.23
2016-07-27T07:46:54.764Z,1013.19
2016-07-27T07:47:54.797Z,1013.19
2016-07-27T07:48:54.830Z,1013.13
2016-07-27T07:49:54.862Z,1013.13
2016-07-27T07:50:54.895Z,1013.11
2016-07-27T07:51:54.928Z,1013.12
2016-07-27T07:52:54.963Z,1013.16
2016-07-27T07:53:54.995Z,1013.11
2016-07-27T07:54:55.028Z,1013.11
2016-07-27T07:55:55.060Z,1013.13
2016-07-27T07:56:55.093Z,1013.12
2016-07-27T07:57:55.124Z,1013.14
2016-07-27T07:59:55.189Z,1013.1
2016-07-27T08:00:55.220Z,1013.09
2016-07-27T08:01:55.254Z,1013.1
2016-07-27T08:02:55.287Z,1013.13
2016-07-27T08:03:55.319Z,1013.08
2016-07-27T08:04:55.352Z,1013.08
2016-07-27T08:05:55.383Z,1013.05
2016-07-27T08:06:55.415Z,1013.05
2016-07-27T08:07:55.445Z,1013.07
2016-07-27T08:08:55.477Z,1013.01
2016-07-27T08:09:55.509Z,1013
2016-07-27T08:10:55.543Z,1012.96
2016-07-27T08:11:55.574Z,1013.01
2016-07-27T08:12:55.605Z,1013.03
2016-07-27T08:13:55.637Z,1013.03
2016-07-27T08:15:55.699Z,1013.02
2016-07-27T08:16:55.733Z,1013.02
2016-07-27T08:17:55.764Z,1013.03
2016-07-27T08:18:55.811Z,1013.09
2016-07-27T08:19:55.826Z,1013.08
2016-07-27T08:20:55.856Z,1013.1
2016-07-27T08:21:55.889Z,1013.06
2016-07-27T08:22:55.919Z,1013.03
2016-07-27T08:23:55.951Z,1012.98
2016-07-27T08:24:55.982Z,1012.92
2016-07-27T08:25:56.015Z,1012.88
2016-07-27T08:26:56.044Z,1012.91
2016-07-27T08:27:56.076Z,1012.91
2016-07-27T08:28:56.108Z,1012.89
2016-07-27T08:29:56.139Z,1012.86
2016-07-27T08:31:56.202Z,1012.87
2016-07-27T08:32:56.233Z,1012.95
2016-07-27T08:33:56.261Z,1012.93
2016-07-27T08:34:56.295Z,1012.97
2016-07-27T08:35:56.325Z,1012.95
2016-07-27T08:36:56.355Z,1012.96
2016-07-27T08:37:56.384Z,1012.92
2016-07-27T08:38:56.418Z,1012.94
2016-07-27T08:39:56.447Z,1012.93
2016-07-27T08:40:56.477Z,1012.9
2016-07-27T08:41:56.508Z,1012.86
2016-07-27T08:42:56.591Z,1012.92
2016-07-27T08:43:56.569Z,1012.95
2016-07-27T08:44:56.601Z,1012.92
2016-07-27T08:46:56.664Z,1012.88
2016-07-27T08:47:56.693Z,1012.84
2016-07-27T08:48:56.723Z,1012.81
2016-07-27T08:49:56.756Z,1012.77
2016-07-27T08:50:56.786Z,1012.75
2016-07-27T08:51:56.817Z,1012.76
2016-07-27T08:52:56.847Z,1012.8
2016-07-27T08:53:56.877Z,1012.86
2016-07-27T08:54:56.909Z,1012.84
2016-07-27T08:55:56.939Z,1012.86
2016-07-27T08:56:56.972Z,1012.84
2016-07-27T08:57:56.999Z,1012.9
2016-07-27T08:58:57.032Z,1012.82
2016-07-27T08:59:57.061Z,1012.81
2016-07-27T09:00:57.092Z,1012.79
2016-07-27T09:01:57.125Z,1012.76
2016-07-27T09:02:57.152Z,1012.78
2016-07-27T09:03:57.187Z,1012.76
2016-07-27T09:04:57.218Z,1012.73
2016-07-27T09:05:57.247Z,1012.69
2016-07-27T09:06:57.278Z,1012.68
2016-07-27T09:07:57.312Z,1012.58
2016-07-27T09:08:57.341Z,1012.6
2016-07-27T09:09:57.372Z,1012.57
2016-07-27T09:10:57.403Z,1012.54
2016-07-27T09:11:57.437Z,1012.54
2016-07-27T09:12:57.466Z,1012.49
2016-07-27T09:13:57.497Z,1012.54
2016-07-27T09:14:57.527Z,1012.56
2016-07-27T09:15:57.562Z,1012.56
2016-07-27T09:16:57.591Z,1012.6
2016-07-27T09:18:57.656Z,1012.53
2016-07-27T09:19:57.685Z,1012.54
2016-07-27T09:20:57.717Z,1012.56
2016-07-27T09:21:57.747Z,1012.53
2016-07-27T09:22:57.779Z,1012.57
2016-07-27T09:23:57.813Z,1012.58
2016-07-27T09:24:57.843Z,1012.53
2016-07-27T09:25:57.873Z,1012.49
2016-07-27T09:26:57.904Z,1012.51
2016-07-27T09:27:57.935Z,1012.44
2016-07-27T09:28:57.969Z,1012.44
2016-07-27T09:29:58.000Z,1012.47
2016-07-27T09:30:58.031Z,1012.49
2016-07-27T09:31:58.062Z,1012.47
2016-07-27T09:32:58.093Z,1012.45
2016-07-27T09:34:58.156Z,1012.48
2016-07-27T09:35:58.188Z,1012.49
2016-07-27T09:36:58.221Z,1012.47
2016-07-27T09:38:58.283Z,1012.5
2016-07-27T09:39:58.312Z,1012.48
2016-07-27T09:40:58.347Z,1012.46
2016-07-27T09:41:58.376Z,1012.44
2016-07-27T09:42:58.406Z,1012.38
2016-07-27T09:43:58.439Z,1012.35
2016-07-27T09:44:58.472Z,1012.32
2016-07-27T09:45:58.504Z,1012.3
2016-07-27T09:46:58.534Z,1012.31
2016-07-27T09:47:58.567Z,1012.33
2016-07-27T09:48:58.599Z,1012.28
2016-07-27T09:50:58.661Z,1012.28
2016-07-27T09:51:58.694Z,1012.34
2016-07-27T09:52:58.723Z,1012.29
2016-07-27T09:53:58.756Z,1012.33
2016-07-27T09:54:58.787Z,1012.33
2016-07-27T09:55:58.817Z,1012.34
2016-07-27T09:56:58.849Z,1012.34
2016-07-27T09:57:58.880Z,1012.34
2016-07-27T09:58:58.913Z,1012.33
2016-07-27T09:59:58.945Z,1012.32
2016-07-27T10:00:58.975Z,1012.3
2016-07-27T10:01:59.008Z,1012.28
2016-07-27T10:02:59.039Z,1012.3
2016-07-27T10:03:59.070Z,1012.24
2016-07-27T10:04:59.100Z,1012.23
2016-07-27T10:06:59.163Z,1012.24
2016-07-27T10:08:59.225Z,1012.17
2016-07-27T10:09:59.257Z,1012.11
2016-07-27T10:10:59.291Z,1012.16
2016-07-27T10:11:59.320Z,1012.11
2016-07-27T10:12:59.353Z,1012.12
2016-07-27T10:13:59.386Z,1012.08
2016-07-27T10:14:59.417Z,1012.11
2016-07-27T10:15:59.447Z,1012.05
2016-07-27T10:16:59.479Z,1012.03
2016-07-27T10:17:59.510Z,1012.05
2016-07-27T10:18:59.541Z,1012.03
2016-07-27T10:19:59.575Z,1012.03
2016-07-27T10:21:59.640Z,1012
2016-07-27T10:23:59.701Z,1011.93
2016-07-27T10:24:59.733Z,1011.93
2016-07-27T10:25:59.763Z,1011.9
2016-07-27T10:26:59.794Z,1011.9
2016-07-27T10:27:59.827Z,1011.9
2016-07-27T10:28:59.857Z,1011.87
2016-07-27T10:29:59.890Z,1011.9
2016-07-27T10:30:59.919Z,1011.87
2016-07-27T10:31:59.954Z,1011.88
2016-07-27T10:32:59.983Z,1011.85
2016-07-27T10:34:00.017Z,1011.86
2016-07-27T10:35:00.048Z,1011.84
2016-07-27T10:36:00.080Z,1011.85
2016-07-27T10:37:00.112Z,1011.83
2016-07-27T10:38:00.142Z,1011.82
2016-07-27T10:39:00.225Z,1011.82
2016-07-27T10:40:00.207Z,1011.87
2016-07-27T10:41:00.237Z,1011.82
2016-07-27T10:42:00.270Z,1011.83
2016-07-27T10:43:00.299Z,1011.82
2016-07-27T10:44:00.334Z,1011.74
2016-07-27T10:45:00.364Z,1011.71
2016-07-27T10:46:00.397Z,1011.64
2016-07-27T10:47:00.428Z,1011.63
2016-07-27T10:48:00.461Z,1011.63
2016-07-27T10:49:00.492Z,1011.64
2016-07-27T10:50:00.524Z,1011.62
2016-07-27T10:51:00.605Z,1011.61
2016-07-27T10:52:00.586Z,1011.6
2016-07-27T10:54:00.652Z,1011.53
2016-07-27T10:55:00.684Z,1011.57
2016-07-27T10:56:00.715Z,1011.52
2016-07-27T10:57:00.747Z,1011.52
2016-07-27T10:58:00.778Z,1011.47
2016-07-27T10:59:00.811Z,1011.45
2016-07-27T11:00:00.842Z,1011.45
2016-07-27T11:01:00.875Z,1011.4
2016-07-27T11:02:00.905Z,1011.4
2016-07-27T11:03:00.936Z,1011.38
2016-07-27T11:04:00.970Z,1011.34
2016-07-27T11:05:01.003Z,1011.29
2016-07-27T11:06:01.035Z,1011.25
2016-07-27T11:07:01.066Z,1011.27
2016-07-27T11:08:01.099Z,1011.26
2016-07-27T11:10:01.166Z,1011.24
2016-07-27T11:11:01.194Z,1011.18
2016-07-27T11:12:01.224Z,1011.13
2016-07-27T11:13:01.258Z,1011.13
2016-07-27T11:14:01.288Z,1011.13
2016-07-27T11:15:01.321Z,1011.11
2016-07-27T11:16:01.354Z,1011.11
2016-07-27T11:17:01.386Z,1011.12
2016-07-27T11:18:01.418Z,1011.1
2016-07-27T11:19:01.450Z,1011.09
2016-07-27T11:20:01.481Z,1011.07
2016-07-27T11:21:01.515Z,1011.04
2016-07-27T11:22:01.544Z,1011.07
2016-07-27T11:23:01.577Z,1011.04
2016-07-27T11:24:01.611Z,1010.98
2016-07-27T11:26:01.675Z,1010.94
2016-07-27T11:27:01.704Z,1010.93
2016-07-27T11:28:01.738Z,1010.87
2016-07-27T11:29:01.770Z,1010.82
2016-07-27T11:30:01.801Z,1010.77
2016-07-27T11:31:01.835Z,1010.74
2016-07-27T11:32:01.865Z,1010.7
2016-07-27T11:33:01.896Z,1010.65
2016-07-27T11:35:01.961Z,1010.56
2016-07-27T11:36:01.994Z,1010.55
2016-07-27T11:37:02.027Z,1010.57
2016-07-27T11:38:02.059Z,1010.53
2016-07-27T11:39:02.089Z,1010.51
2016-07-27T11:40:02.122Z,1010.51
2016-07-27T11:42:02.185Z,1010.43
2016-07-27T11:43:02.220Z,1010.47
2016-07-27T11:44:02.249Z,1010.44
2016-07-27T11:45:02.284Z,1010.36
2016-07-27T11:46:02.316Z,1010.36
2016-07-27T11:47:02.348Z,1010.31
2016-07-27T11:48:02.378Z,1010.33
2016-07-27T11:49:02.412Z,1010.32
2016-07-27T11:50:02.444Z,1010.27
2016-07-27T11:51:02.473Z,1010.27
2016-07-27T11:52:02.508Z,1010.28
2016-07-27T11:53:02.541Z,1010.25
2016-07-27T11:54:02.573Z,1010.26
2016-07-27T11:55:02.604Z,1010.25
2016-07-27T11:57:02.668Z,1010.24
2016-07-27T11:58:02.702Z,1010.23
2016-07-27T11:59:02.732Z,1010.21
2016-07-27T12:00:02.766Z,1010.22
2016-07-27T12:01:02.798Z,1010.15
2016-07-27T12:02:02.830Z,1010.11
2016-07-27T12:03:02.866Z,1010.09
2016-07-27T12:04:02.894Z,1010.07
2016-07-27T12:05:02.927Z,1010.1
2016-07-27T12:06:02.956Z,1010.08
2016-07-27T12:07:02.989Z,1010.08
2016-07-27T12:08:03.047Z,1010.08
2016-07-27T12:09:03.055Z,1010.12
2016-07-27T12:10:03.084Z,1010.12
2016-07-27T12:11:03.119Z,1010.09
2016-07-27T12:12:03.151Z,1010.12
2016-07-27T12:13:03.180Z,1010.15
2016-07-27T12:14:03.214Z,1010.14
2016-07-27T12:15:03.245Z,1010.13
2016-07-27T12:16:03.278Z,1010.13
2016-07-27T12:17:03.309Z,1010.14
2016-07-27T12:18:03.340Z,1010.18
2016-07-27T12:19:03.372Z,1010.12
2016-07-27T12:20:03.409Z,1010.14
2016-07-27T12:21:03.437Z,1010.16
2016-07-27T12:22:03.469Z,1010.12
2016-07-27T12:23:03.500Z,1010.14
2016-07-27T12:24:03.531Z,1010.06
2016-07-27T12:25:03.564Z,1010.04
2016-07-27T12:26:03.600Z,1010.07
2016-07-27T12:27:03.627Z,1010.06
2016-07-27T12:29:03.691Z,1010.06
2016-07-27T12:30:03.724Z,1010.05
2016-07-27T12:31:03.753Z,1010.03
2016-07-27T12:32:03.785Z,1010.02
2016-07-27T12:33:03.818Z,1010
2016-07-27T12:34:03.851Z,1010.02
2016-07-27T12:35:03.882Z,1009.98
2016-07-27T12:36:03.913Z,1009.95
2016-07-27T12:37:03.945Z,1009.95
2016-07-27T12:38:03.976Z,1009.91
2016-07-27T12:39:04.058Z,1009.9
2016-07-27T12:40:04.051Z,1009.91
2016-07-27T12:41:04.068Z,1009.91
2016-07-27T12:42:04.103Z,1009.9
2016-07-27T12:43:04.133Z,1009.85
2016-07-27T12:45:04.198Z,1009.74
2016-07-27T12:46:04.229Z,1009.69
2016-07-27T12:47:04.261Z,1009.69
2016-07-27T12:48:04.292Z,1009.64
2016-07-27T12:49:04.323Z,1009.66
2016-07-27T12:50:04.357Z,1009.64
2016-07-27T12:51:04.386Z,1009.63
2016-07-27T12:52:04.418Z,1009.59
2016-07-27T12:53:04.447Z,1009.64
2016-07-27T12:54:04.480Z,1009.6
2016-07-27T12:55:04.512Z,1009.65
2016-07-27T12:56:04.543Z,1009.6
2016-07-27T12:57:04.574Z,1009.53